Time;durP1;ratioP1;P1;durP2;ratioP2;P2;SDS_P1;SDS_P2;PMS_P1;PMS_P2;Temp;Humidity;BMP_temperature;BMP_pressure;BME280_temperature;BME280_humidity;BME280_pressure;Samples;Min_cycle;Max_cycle;Signal;HPM_P1;HPM_P2
2021/09/17 00:00:28;;;;;;;8.52;5.03;;;;;;;19.89;65.72;95151.94;5067819;28;20102;-67
2021/09/17 00:02:58;;;;;;;6.25;4.35;;;;;;;19.83;65.69;95143.28;5076052;28;20109;-67
2021/09/17 00:05:26;;;;;;;6.78;5.20;;;;;;;19.89;65.53;95149.31;5076341;28;20517;-67
2021/09/17 00:07:52;;;;;;;9.63;4.72;;;;;;;19.86;64.88;95141.94;5083858;28;20120;-67
2021/09/17 00:10:20;;;;;;;6.75;5.78;;;;;;;19.90;65.17;95135.03;5079916;28;20747;-67
2021/09/17 00:12:47;;;;;;;8.25;5.25;;;;;;;19.95;64.69;95137.63;5081659;28;20040;-68
2021/09/17 00:15:14;;;;;;;10.30;6.55;;;;;;;19.85;65.35;95135.09;5087273;28;20079;-67
2021/09/17 00:17:44;;;;;;;8.27;5.70;;;;;;;19.82;65.50;95125.06;5080141;28;20370;-67
2021/09/17 00:20:12;;;;;;;11.07;5.85;;;;;;;19.88;66.10;95123.16;5072203;28;20094;-67
2021/09/17 00:22:39;;;;;;;9.85;5.60;;;;;;;19.71;68.08;95113.78;5069783;28;20048;-66
2021/09/17 00:25:08;;;;;;;8.45;5.40;;;;;;;19.40;69.37;95102.78;5071997;28;20532;-67
2021/09/17 00:27:35;;;;;;;9.02;6.78;;;;;;;19.34;69.79;95098.59;5066924;28;20054;-66
2021/09/17 00:30:03;;;;;;;10.60;7.32;;;;;;;19.12;69.72;95097.22;5070733;28;20413;-66
2021/09/17 00:32:31;;;;;;;9.40;7.18;;;;;;;19.15;69.54;95107.22;5079645;28;20040;-67
2021/09/17 00:34:59;;;;;;;11.43;7.80;;;;;;;19.16;68.22;95103.53;5083871;28;20101;-67
2021/09/17 00:37:25;;;;;;;9.27;6.75;;;;;;;19.29;66.63;95113.44;5073442;28;20040;-67
2021/09/17 00:39:52;;;;;;;12.40;8.10;;;;;;;19.25;66.80;95107.13;5069025;28;20032;-68
2021/09/17 00:42:19;;;;;;;10.35;7.43;;;;;;;19.29;67.33;95118.72;5081237;28;20097;-66
2021/09/17 00:44:46;;;;;;;13.25;7.22;;;;;;;19.19;67.05;95110.88;5081942;28;20044;-66
2021/09/17 00:47:13;;;;;;;9.63;7.80;;;;;;;19.21;67.66;95116.69;5077739;28;20036;-67
2021/09/17 00:49:40;;;;;;;13.90;7.50;;;;;;;19.15;67.31;95111.72;5069641;28;20886;-66
2021/09/17 00:52:07;;;;;;;10.63;6.60;;;;;;;19.09;67.69;95113.63;5070252;28;20040;-66
2021/09/17 00:54:34;;;;;;;9.13;6.50;;;;;;;19.02;67.11;95111.31;5078305;28;20480;-65
2021/09/17 00:57:04;;;;;;;15.35;6.03;;;;;;;19.02;67.00;95119.22;5080919;28;20044;-66
2021/09/17 00:59:31;;;;;;;10.10;7.05;;;;;;;19.00;68.21;95110.00;5070658;28;20052;-65
2021/09/17 01:01:58;;;;;;;10.18;6.25;;;;;;;18.86;68.11;95094.78;5073239;28;20028;-66
2021/09/17 01:04:25;;;;;;;10.00;6.78;;;;;;;18.86;68.76;95094.78;5083757;28;20044;-66
2021/09/17 01:06:53;;;;;;;10.80;7.88;;;;;;;18.82;69.43;95093.78;5067332;28;20048;-67
2021/09/17 01:09:21;;;;;;;9.35;6.63;;;;;;;18.77;69.55;95091.16;5081132;28;20040;-66
2021/09/17 01:11:48;;;;;;;10.38;6.95;;;;;;;18.76;69.37;95089.56;5074354;28;20040;-66
2021/09/17 01:14:15;;;;;;;10.55;7.00;;;;;;;18.74;69.05;95094.34;5070572;28;20040;-66
2021/09/17 01:16:42;;;;;;;8.88;5.45;;;;;;;18.68;69.42;95082.25;5071961;28;20101;-66
2021/09/17 01:19:09;;;;;;;9.27;6.10;;;;;;;18.68;70.01;95087.53;5073117;28;20044;-66
2021/09/17 01:21:36;;;;;;;9.57;6.63;;;;;;;18.58;69.70;95071.78;5066222;28;20045;-65
2021/09/17 01:24:03;;;;;;;8.70;6.20;;;;;;;18.52;69.78;95069.16;5069507;28;21871;-66
2021/09/17 01:26:30;;;;;;;9.75;5.97;;;;;;;18.40;70.55;95060.84;5071915;28;20048;-65
2021/09/17 01:28:57;;;;;;;9.60;6.47;;;;;;;18.43;70.39;95070.81;5070086;28;20114;-66
2021/09/17 01:31:24;;;;;;;11.90;6.50;;;;;;;18.38;69.86;95065.56;5078461;28;20032;-66
2021/09/17 01:33:50;;;;;;;8.48;6.15;;;;;;;18.24;70.64;95046.16;5079191;28;20420;-65
2021/09/17 01:36:17;;;;;;;9.32;5.90;;;;;;;18.18;70.26;95037.50;5071638;28;20048;-66
2021/09/17 01:38:44;;;;;;;9.13;6.35;;;;;;;18.23;70.38;95057.78;5066787;28;20105;-67
2021/09/17 01:41:11;;;;;;;9.23;6.22;;;;;;;18.18;70.86;95063.06;5075507;28;20047;-66
2021/09/17 01:43:38;;;;;;;12.20;6.60;;;;;;;18.09;71.31;95061.00;5075971;28;20032;-67
2021/09/17 01:46:04;;;;;;;8.25;5.97;;;;;;;17.92;71.50;95050.06;5069292;28;20055;-66
2021/09/17 01:48:31;;;;;;;11.20;6.60;;;;;;;17.92;71.92;95063.22;5077281;28;20501;-66
2021/09/17 01:50:58;;;;;;;9.02;6.07;;;;;;;17.84;72.96;95059.25;5069147;28;20032;-66
2021/09/17 01:53:25;;;;;;;8.93;5.90;;;;;;;17.69;73.11;95041.69;5076151;28;20103;-66
2021/09/17 01:55:52;;;;;;;7.90;5.78;;;;;;;17.63;73.57;95058.56;5070185;28;20251;-65
2021/09/17 01:58:19;;;;;;;9.35;6.78;;;;;;;17.56;74.34;95052.81;5078832;28;20046;-67
2021/09/17 02:00:46;;;;;;;8.55;5.95;;;;;;;17.55;73.81;95053.84;5080217;28;20040;-66
2021/09/17 02:03:13;;;;;;;9.05;6.45;;;;;;;17.52;73.69;95057.00;5081438;28;20048;-67
2021/09/17 02:05:40;;;;;;;8.82;5.70;;;;;;;17.50;73.86;95043.34;5079326;28;20067;-66
2021/09/17 02:08:07;;;;;;;8.75;6.18;;;;;;;17.52;74.69;95046.47;5072401;28;20036;-67
2021/09/17 02:10:34;;;;;;;11.27;6.38;;;;;;;17.45;75.22;95025.72;5069308;28;20036;-66
2021/09/17 02:13:00;;;;;;;8.07;5.68;;;;;;;17.50;75.49;95048.59;5078127;28;20047;-67
2021/09/17 02:15:27;;;;;;;10.02;6.50;;;;;;;17.46;75.29;95047.56;5070406;28;20051;-66
2021/09/17 02:17:54;;;;;;;8.32;6.00;;;;;;;17.47;75.12;95043.88;5072842;28;20041;-67
2021/09/17 02:20:21;;;;;;;8.73;6.57;;;;;;;17.44;74.10;95037.31;5078232;28;20956;-66
2021/09/17 02:22:47;;;;;;;10.15;6.35;;;;;;;17.48;73.96;95035.69;5065126;28;20056;-66
2021/09/17 02:25:15;;;;;;;8.93;5.82;;;;;;;17.45;74.21;95024.91;5085025;28;20044;-67
2021/09/17 02:27:41;;;;;;;7.80;5.38;;;;;;;17.50;75.06;95032.81;5075022;28;20097;-66
2021/09/17 02:30:10;;;;;;;7.53;5.65;;;;;;;17.50;74.29;95032.81;5079368;28;20509;-66
2021/09/17 02:32:37;;;;;;;8.55;5.57;;;;;;;17.51;74.32;95035.16;5076554;28;20044;-66
2021/09/17 02:35:05;;;;;;;9.38;6.28;;;;;;;17.57;74.63;95033.28;5076797;28;20044;-66
2021/09/17 02:37:32;;;;;;;10.10;5.68;;;;;;;17.60;73.52;95022.22;5070792;28;20407;-67
2021/09/17 02:39:59;;;;;;;9.43;5.93;;;;;;;17.60;73.55;95027.50;5087629;28;20055;-66
2021/09/17 02:42:26;;;;;;;8.57;5.97;;;;;;;17.56;74.86;95015.94;5082270;28;20040;-66
2021/09/17 02:44:53;;;;;;;7.13;4.90;;;;;;;17.55;75.13;95019.63;5072014;28;20048;-66
2021/09/17 02:47:21;;;;;;;7.63;6.00;;;;;;;17.55;74.55;95019.63;5083309;28;20047;-66
2021/09/17 02:49:47;;;;;;;8.15;5.72;;;;;;;17.62;73.30;95025.38;5074161;28;20049;-67
2021/09/17 02:52:14;;;;;;;8.00;5.25;;;;;;;17.65;73.60;95021.44;5076622;28;20041;-67
2021/09/17 02:54:41;;;;;;;9.43;5.80;;;;;;;17.67;73.40;95022.72;5072827;28;20036;-67
2021/09/17 02:57:08;;;;;;;11.05;5.95;;;;;;;17.68;73.20;95011.16;5082520;28;20429;-66
2021/09/17 02:59:35;;;;;;;9.55;5.78;;;;;;;17.59;73.61;95004.84;5083306;28;20406;-67
2021/09/17 03:02:02;;;;;;;7.95;6.18;;;;;;;17.75;73.78;95024.81;5081518;28;20100;-67
2021/09/17 03:04:31;;;;;;;9.38;5.53;;;;;;;17.78;73.97;95016.34;5075820;28;20052;-67
2021/09/17 03:06:58;;;;;;;9.20;5.35;;;;;;;17.75;74.40;95019.53;5085384;28;20052;-66
2021/09/17 03:09:25;;;;;;;7.95;5.78;;;;;;;17.74;74.71;95017.97;5080706;28;20129;-67
2021/09/17 03:11:53;;;;;;;9.07;5.60;;;;;;;17.77;74.49;95022.69;5075587;28;20039;-66
2021/09/17 03:14:20;;;;;;;8.57;5.85;;;;;;;17.81;75.07;95022.13;5080099;28;20785;-67
2021/09/17 03:16:47;;;;;;;10.55;7.47;;;;;;;17.70;75.42;95011.66;5080709;28;20060;-67
2021/09/17 03:19:14;;;;;;;7.95;5.38;;;;;;;17.78;75.20;95018.97;5073031;28;20040;-67
2021/09/17 03:21:41;;;;;;;8.63;6.03;;;;;;;17.67;75.72;95006.94;5072869;28;20028;-67
2021/09/17 03:24:08;;;;;;;9.68;5.82;;;;;;;17.76;75.80;95021.09;5077035;28;20048;-67
2021/09/17 03:26:35;;;;;;;10.93;6.75;;;;;;;17.76;75.61;95015.84;5079934;28;20045;-66
2021/09/17 03:29:02;;;;;;;8.35;5.28;;;;;;;17.72;76.47;95006.91;5083751;28;20048;-66
2021/09/17 03:31:29;;;;;;;10.07;6.30;;;;;;;17.72;76.37;95014.81;5082519;28;20448;-66
2021/09/17 03:33:58;;;;;;;7.72;5.07;;;;;;;17.67;75.46;95011.41;5068385;28;20044;-66
2021/09/17 03:36:26;;;;;;;10.15;5.80;;;;;;;17.75;74.38;95024.81;5082932;28;20040;-67
2021/09/17 03:38:54;;;;;;;9.25;6.65;;;;;;;17.78;74.16;95018.97;5085711;28;20513;-67
2021/09/17 03:41:21;;;;;;;8.73;6.30;;;;;;;17.81;73.21;95016.84;5076004;28;20125;-66
2021/09/17 03:43:48;;;;;;;9.85;5.82;;;;;;;17.82;73.47;95007.91;5078179;28;20036;-67
2021/09/17 03:46:15;;;;;;;7.35;4.97;;;;;;;17.84;74.53;95008.41;5076503;28;20032;-67
2021/09/17 03:48:42;;;;;;;7.45;5.78;;;;;;;17.70;74.38;95006.41;5080959;28;20048;-67
2021/09/17 03:51:09;;;;;;;8.00;5.50;;;;;;;17.78;73.17;95008.44;5066837;28;20049;-66
2021/09/17 03:53:35;;;;;;;7.10;5.07;;;;;;;17.81;73.80;95006.31;5071000;28;20037;-66
2021/09/17 03:56:03;;;;;;;7.15;5.82;;;;;;;17.76;74.06;95009.78;5079028;28;20052;-67
2021/09/17 03:58:30;;;;;;;7.60;5.20;;;;;;;17.64;72.63;94985.63;5080104;28;20036;-67
2021/09/17 04:00:57;;;;;;;8.57;5.72;;;;;;;17.88;71.80;95006.84;5072885;28;20414;-67
2021/09/17 04:03:24;;;;;;;10.43;6.72;;;;;;;17.86;72.72;94998.44;5072561;28;20067;-67
2021/09/17 04:05:50;;;;;;;6.70;5.07;;;;;;;17.93;72.41;95014.72;5074068;28;20048;-67
2021/09/17 04:08:17;;;;;;;9.18;6.82;;;;;;;17.87;72.45;95015.81;5072741;28;20043;-67
2021/09/17 04:10:44;;;;;;;9.20;6.00;;;;;;;17.92;72.90;95023.69;5073540;28;20068;-66
2021/09/17 04:13:11;;;;;;;9.63;6.03;;;;;;;17.94;72.84;95027.63;5074338;28;20041;-66
2021/09/17 04:15:37;;;;;;;8.65;6.35;;;;;;;17.77;72.60;95016.63;5081084;28;20055;-66
2021/09/17 04:18:04;;;;;;;11.45;6.90;;;;;;;17.87;73.55;95029.78;5081523;28;20039;-67
2021/09/17 04:20:31;;;;;;;7.82;6.13;;;;;;;17.78;74.29;95013.72;5075777;28;20563;-67
2021/09/17 04:22:58;;;;;;;9.82;6.45;;;;;;;17.67;74.49;95020.09;5068319;28;20037;-67
2021/09/17 04:25:24;;;;;;;11.48;6.00;;;;;;;17.63;75.38;95013.81;5078781;28;20044;-67
2021/09/17 04:27:51;;;;;;;12.73;6.32;;;;;;;17.55;77.35;95024.88;5071623;28;20049;-67
2021/09/17 04:30:18;;;;;;;9.55;6.38;;;;;;;17.42;77.37;95036.00;5082055;28;20053;-66
2021/09/17 04:32:45;;;;;;;14.50;6.57;;;;;;;17.49;78.39;95023.34;5074834;28;20040;-67
2021/09/17 04:35:12;;;;;;;10.50;6.78;;;;;;;17.37;78.98;95023.63;5073177;28;20048;-66
2021/09/17 04:37:41;;;;;;;8.98;6.07;;;;;;;17.49;78.68;95031.25;5078412;28;20512;-67
2021/09/17 04:40:10;;;;;;;9.38;5.78;;;;;;;17.54;78.26;95028.59;5074144;28;20176;-67
2021/09/17 04:42:37;;;;;;;9.15;5.90;;;;;;;17.45;79.66;95035.44;5086143;28;20055;-67
2021/09/17 04:45:05;;;;;;;9.38;6.43;;;;;;;17.46;79.42;95026.50;5078851;28;20524;-66
2021/09/17 04:47:32;;;;;;;10.15;7.18;;;;;;;17.26;81.28;95020.25;5076332;28;20050;-67
2021/09/17 04:50:02;;;;;;;9.65;6.07;;;;;;;17.45;80.05;95040.72;5099944;27;20048;-67
2021/09/17 04:52:43;;;;;;;10.52;6.90;;;;;;;17.45;79.90;95030.19;5069621;28;20040;-67
2021/09/17 04:55:10;;;;;;;9.02;6.07;;;;;;;17.25;81.30;95039.75;5071499;28;20196;-67
2021/09/17 04:57:37;;;;;;;9.00;6.28;;;;;;;17.21;81.11;95036.03;5067981;28;20128;-67
2021/09/17 05:00:06;;;;;;;9.80;6.40;;;;;;;17.18;80.63;95031.34;5072022;28;20050;-67
2021/09/17 05:02:33;;;;;;;10.20;7.07;;;;;;;17.29;80.15;95032.88;5077101;28;20040;-66
2021/09/17 05:05:01;;;;;;;10.30;6.35;;;;;;;17.34;80.04;95029.44;5073619;28;20051;-66
2021/09/17 05:07:28;;;;;;;8.60;6.22;;;;;;;17.21;80.62;95009.72;5078307;28;20421;-67
2021/09/17 05:09:54;;;;;;;8.45;6.43;;;;;;;17.47;79.95;95028.09;5069981;28;20037;-66
2021/09/17 05:12:21;;;;;;;8.40;6.00;;;;;;;17.58;78.60;95030.41;5071770;28;20032;-66
2021/09/17 05:14:48;;;;;;;12.18;7.18;;;;;;;17.72;77.57;95037.75;5066803;28;20510;-67
2021/09/17 05:17:15;;;;;;;10.57;6.47;;;;;;;17.83;78.07;95030.56;5066988;28;20044;-66
2021/09/17 05:19:41;;;;;;;10.35;7.28;;;;;;;17.90;77.88;95015.28;5066772;28;20051;-67
2021/09/17 05:22:08;;;;;;;11.95;8.60;;;;;;;18.05;77.71;95025.72;5065683;28;20438;-66
2021/09/17 05:24:35;;;;;;;10.32;6.95;;;;;;;18.04;77.83;95032.06;5072187;28;20048;-67
2021/09/17 05:27:02;;;;;;;8.95;6.53;;;;;;;18.12;77.42;95023.56;5079120;28;20062;-67
2021/09/17 05:29:29;;;;;;;8.07;5.72;;;;;;;18.20;77.85;95039.88;5073575;28;20057;-66
2021/09/17 05:31:56;;;;;;;9.57;7.10;;;;;;;18.32;76.99;95042.94;5080165;28;20106;-66
2021/09/17 05:34:23;;;;;;;9.55;6.38;;;;;;;18.26;77.04;95038.78;5079973;28;20618;-66
2021/09/17 05:36:50;;;;;;;12.95;7.43;;;;;;;18.34;77.61;95043.47;5079525;28;20095;-66
2021/09/17 05:39:17;;;;;;;9.70;6.40;;;;;;;18.24;80.45;95048.78;5078185;28;20040;-67
2021/09/17 05:41:44;;;;;;;14.43;8.85;;;;;;;18.42;79.57;95048.16;5068526;28;20044;-67
2021/09/17 05:44:10;;;;;;;10.57;7.57;;;;;;;18.34;81.24;95048.72;5071182;28;20089;-67
2021/09/17 05:46:38;;;;;;;10.75;7.72;;;;;;;18.37;80.84;95039.50;5072154;28;20049;-66
2021/09/17 05:49:04;;;;;;;14.13;6.95;;;;;;;18.30;78.79;95042.44;5072923;28;20040;-66
2021/09/17 05:51:31;;;;;;;12.95;6.57;;;;;;;18.28;78.48;95023.47;5074132;28;20047;-67
2021/09/17 05:54:05;;;;;;;8.93;5.88;;;;;;;18.23;80.10;95034.06;5072257;28;20056;-66
2021/09/17 05:56:32;;;;;;;10.95;7.30;;;;;;;18.25;80.83;95024.03;5071633;28;20037;-66
2021/09/17 05:58:59;;;;;;;9.98;6.32;;;;;;;18.14;82.59;95012.75;5075168;28;20051;-67
2021/09/17 06:01:26;;;;;;;10.90;7.57;;;;;;;18.21;82.05;95023.00;5071488;28;20036;-66
2021/09/17 06:03:53;;;;;;;10.25;7.80;;;;;;;18.27;80.14;95024.53;5072657;28;20496;-67
2021/09/17 06:06:20;;;;;;;14.45;7.95;;;;;;;18.44;78.88;95011.75;5083633;28;20500;-67
2021/09/17 06:08:48;;;;;;;14.60;6.55;;;;;;;18.63;79.03;95017.13;5084924;28;20043;-67
2021/09/17 06:11:16;;;;;;;10.32;6.47;;;;;;;18.75;80.68;95016.78;5084547;28;20074;-67
2021/09/17 06:13:44;;;;;;;10.55;6.47;;;;;;;18.93;78.20;95017.97;5078155;28;20047;-67
2021/09/17 06:16:11;;;;;;;9.52;6.75;;;;;;;19.03;78.01;95020.50;5072183;28;20121;-67
2021/09/17 06:18:44;;;;;;;14.43;7.50;;;;;;;19.25;76.58;95017.38;5069078;28;20071;-67
2021/09/17 06:21:10;;;;;;;8.95;5.97;;;;;;;19.45;74.11;95015.56;5071144;28;20508;-67
2021/09/17 06:23:37;;;;;;;8.30;5.50;;;;;;;19.65;73.22;95010.03;5064550;28;20044;-68
2021/09/17 06:26:11;;;;;;;8.98;5.18;;;;;;;19.85;70.85;95008.22;5069134;28;20762;-67
2021/09/17 06:28:38;;;;;;;7.72;4.85;;;;;;;19.87;70.79;94990.22;5064730;28;20060;-67
2021/09/17 06:31:04;;;;;;;6.55;4.70;;;;;;;20.07;69.61;94993.66;5079835;28;20048;-67
2021/09/17 06:33:31;;;;;;;11.73;5.25;;;;;;;20.28;68.84;95002.06;5084111;28;20525;-67
2021/09/17 06:35:58;;;;;;;6.90;4.60;;;;;;;20.44;65.76;94998.13;5080112;28;20044;-67
2021/09/17 06:38:25;;;;;;;7.03;4.82;;;;;;;20.52;65.90;94978.16;5073276;28;20041;-67
2021/09/17 06:40:52;;;;;;;6.25;4.40;;;;;;;20.73;65.79;94995.28;5073247;28;20048;-68
2021/09/17 06:43:18;;;;;;;7.18;4.50;;;;;;;20.89;63.46;94997.69;5073909;28;20101;-68
2021/09/17 06:45:45;;;;;;;6.05;4.30;;;;;;;21.02;60.33;94996.13;5073678;28;20040;-68
2021/09/17 06:48:12;;;;;;;5.40;3.63;;;;;;;21.07;58.23;95004.75;5072370;28;20071;-67
2021/09/17 06:50:39;;;;;;;6.57;4.70;;;;;;;21.11;57.37;94999.66;5076773;28;20052;-68
2021/09/17 06:53:05;;;;;;;4.68;3.50;;;;;;;21.24;54.83;95011.34;5069655;28;20036;-67
2021/09/17 06:55:33;;;;;;;6.85;4.30;;;;;;;21.42;54.70;95010.44;5079080;28;20043;-67
2021/09/17 06:58:02;;;;;;;5.35;3.60;;;;;;;21.55;52.71;94999.09;5077592;28;20040;-67
2021/09/17 07:00:32;;;;;;;6.70;4.45;;;;;;;21.70;51.56;94994.56;5074389;28;20566;-67
2021/09/17 07:02:59;;;;;;;6.13;4.70;;;;;;;21.84;51.44;94990.03;5080705;28;20068;-68
2021/09/17 07:05:30;;;;;;;5.80;3.72;;;;;;;21.89;51.05;95003.16;5076215;28;20036;-67
2021/09/17 07:08:05;;;;;;;5.95;3.50;;;;;;;22.04;52.80;94998.59;5079340;28;20101;-67
2021/09/17 07:10:34;;;;;;;8.25;4.07;;;;;;;22.17;51.54;94997.00;5077445;28;20117;-67
2021/09/17 07:13:00;;;;;;;6.28;4.40;;;;;;;22.31;48.96;94993.25;5080148;28;20097;-67
2021/09/17 07:15:28;;;;;;;4.72;3.70;;;;;;;22.32;50.31;94984.19;5080291;28;20052;-68
2021/09/17 07:17:54;;;;;;;6.18;3.75;;;;;;;22.33;52.52;94990.28;5075859;28;20445;-68
2021/09/17 07:20:21;;;;;;;6.93;4.22;;;;;;;22.44;51.29;94996.13;5072930;28;20095;-67
2021/09/17 07:22:48;;;;;;;6.43;3.80;;;;;;;22.50;50.10;94971.03;5075251;28;20580;-67
2021/09/17 07:25:16;;;;;;;4.65;3.30;;;;;;;22.63;49.55;94978.13;5081876;28;20059;-67
2021/09/17 07:27:43;;;;;;;5.25;4.40;;;;;;;22.69;49.38;94979.59;5072524;28;20525;-67
2021/09/17 07:30:10;;;;;;;6.47;4.68;;;;;;;22.87;49.58;94969.84;5083056;28;20036;-68
2021/09/17 07:32:37;;;;;;;6.18;4.25;;;;;;;23.02;49.83;94968.66;5076125;28;20047;-68
2021/09/17 07:35:05;;;;;;;8.43;4.18;;;;;;;23.14;49.77;94962.78;5077694;28;20048;-68
2021/09/17 07:37:32;;;;;;;5.38;3.97;;;;;;;23.25;48.95;94965.97;5082422;28;20044;-67
2021/09/17 07:39:59;;;;;;;3.88;3.13;;;;;;;23.17;49.61;94956.06;5081993;28;20394;-67
2021/09/17 07:42:26;;;;;;;5.25;3.97;;;;;;;23.38;48.79;94965.03;5085050;28;20040;-68
2021/09/17 07:44:53;;;;;;;5.00;3.90;;;;;;;23.59;47.80;94969.81;5079252;28;20388;-67
2021/09/17 07:47:20;;;;;;;6.53;4.75;;;;;;;23.76;45.63;94964.50;5074301;28;20028;-68
2021/09/17 07:49:46;;;;;;;9.90;4.80;;;;;;;23.86;47.64;94958.13;5075306;28;20047;-67
2021/09/17 07:52:13;;;;;;;6.03;4.18;;;;;;;23.89;47.59;94956.72;5074814;28;20047;-68
2021/09/17 07:54:41;;;;;;;5.85;4.60;;;;;;;24.03;46.50;94946.69;5063630;28;20067;-67
2021/09/17 07:57:08;;;;;;;8.02;5.63;;;;;;;23.98;43.71;94938.88;5065897;28;20054;-67
2021/09/17 07:59:34;;;;;;;10.23;6.10;;;;;;;24.22;44.01;94949.81;5079468;28;20127;-67
2021/09/17 08:02:01;;;;;;;6.03;4.47;;;;;;;24.23;45.29;94938.06;5065371;28;20098;-68
2021/09/17 08:04:28;;;;;;;5.00;4.47;;;;;;;24.49;45.14;94942.59;5073770;28;20056;-67
2021/09/17 08:06:55;;;;;;;7.60;4.30;;;;;;;24.48;44.60;94911.72;5075340;28;20048;-68
2021/09/17 08:09:22;;;;;;;7.60;4.10;;;;;;;24.73;43.53;94935.97;5075662;28;20517;-67
2021/09/17 08:11:49;;;;;;;6.50;3.80;;;;;;;24.95;43.63;94933.06;5069277;28;20044;-68
2021/09/17 08:14:16;;;;;;;7.53;4.68;;;;;;;25.08;44.32;94925.19;5074476;28;20052;-67
2021/09/17 08:16:44;;;;;;;4.72;3.30;;;;;;;25.31;41.92;94925.72;5073430;28;20044;-67
2021/09/17 08:19:11;;;;;;;5.80;4.45;;;;;;;25.46;42.35;94929.72;5078809;28;20841;-67
2021/09/17 08:21:41;;;;;;;6.10;4.85;;;;;;;25.53;41.68;94903.31;5076968;28;20119;-68
2021/09/17 08:24:18;;;;;;;4.60;3.90;;;;;;;25.68;39.67;94894.75;5068306;28;20059;-68
2021/09/17 08:26:51;;;;;;;10.52;3.78;;;;;;;25.93;41.44;94902.91;5076368;28;20106;-68
2021/09/17 08:29:18;;;;;;;5.93;3.95;;;;;;;25.78;39.87;94890.13;5071730;28;20102;-68
2021/09/17 08:31:49;;;;;;;7.57;4.10;;;;;;;26.02;38.50;94898.28;5083656;28;20127;-68
2021/09/17 08:34:16;;;;;;;6.95;4.57;;;;;;;26.31;37.63;94883.25;5065545;28;20082;-68
2021/09/17 08:36:43;;;;;;;6.78;3.63;;;;;;;26.48;39.21;94888.38;5067877;28;20040;-68
2021/09/17 08:39:10;;;;;;;8.27;4.28;;;;;;;26.65;37.41;94886.66;5069359;28;20510;-69
2021/09/17 08:41:37;;;;;;;4.20;2.85;;;;;;;26.96;37.21;94899.50;5076288;28;20113;-67
2021/09/17 08:44:05;;;;;;;5.65;3.53;;;;;;;27.08;38.94;94898.69;5066590;28;20147;-69
2021/09/17 08:46:33;;;;;;;7.63;3.20;;;;;;;27.38;35.28;94906.53;5077817;28;20051;-68
2021/09/17 08:49:02;;;;;;;5.68;3.63;;;;;;;27.53;34.02;94899.69;5075468;28;20058;-69
2021/09/17 08:51:29;;;;;;;15.68;4.35;;;;;;;27.17;38.12;94875.34;5072192;28;20066;-69
2021/09/17 08:53:57;;;;;;;5.03;3.70;;;;;;;27.15;37.32;94890.91;5072808;28;20048;-68
2021/09/17 08:56:23;;;;;;;5.25;2.92;;;;;;;27.36;35.77;94890.81;5079558;28;20133;-68
2021/09/17 08:58:50;;;;;;;6.40;3.53;;;;;;;27.75;34.25;94888.50;5075618;28;20056;-68
2021/09/17 09:01:26;;;;;;;6.45;3.42;;;;;;;28.10;33.48;94892.53;5073859;28;20040;-69
2021/09/17 09:03:57;;;;;;;7.30;3.70;;;;;;;28.28;33.68;94888.44;5100870;27;20048;-69
2021/09/17 09:06:25;;;;;;;5.82;3.22;;;;;;;28.51;32.62;94895.91;5076620;28;20047;-69
2021/09/17 09:08:52;;;;;;;7.93;4.07;;;;;;;28.77;32.46;94890.84;5078932;28;20052;-69
2021/09/17 09:11:25;;;;;;;5.93;3.53;;;;;;;28.95;32.09;94883.22;5075505;28;20527;-69
2021/09/17 09:14:09;;;;;;;5.90;3.88;;;;;;;29.27;33.80;94893.94;5083463;28;20056;-69
2021/09/17 09:16:39;;;;;;;6.97;3.70;;;;;;;29.64;31.70;94890.13;5081584;28;20044;-70
2021/09/17 09:19:27;;;;;;;4.95;3.47;;;;;;;30.01;30.63;94887.06;5068921;28;20487;-67
2021/09/17 09:22:10;;;;;;;10.48;4.20;;;;;;;30.26;30.34;94885.63;5079414;28;20040;-69
2021/09/17 09:24:44;;;;;;;11.35;4.68;;;;;;;30.43;30.50;94875.56;5072887;28;20477;-69
2021/09/17 09:27:20;;;;;;;5.90;2.70;;;;;;;30.69;29.85;94872.97;5073714;28;20093;-69
2021/09/17 09:29:51;;;;;;;7.90;3.25;;;;;;;31.01;29.90;94872.72;5066552;28;20569;-69
2021/09/17 09:32:30;;;;;;;7.35;3.47;;;;;;;31.28;29.47;94880.00;5078187;28;20044;-69
2021/09/17 09:35:06;;;;;;;5.07;2.85;;;;;;;31.64;29.89;94884.03;5078026;28;20070;-69
2021/09/17 09:37:36;;;;;;;7.97;3.88;;;;;;;31.82;28.56;94887.69;5076857;28;20150;-69
2021/09/17 09:40:14;;;;;;;8.15;3.67;;;;;;;32.15;28.33;94886.19;5076442;28;20066;-69
2021/09/17 09:42:46;;;;;;;4.60;2.80;;;;;;;32.40;27.00;94888.38;5075527;28;20505;-70
2021/09/17 09:45:21;;;;;;;6.88;3.50;;;;;;;32.66;27.11;94884.00;5075850;28;20055;-69
2021/09/17 09:47:57;;;;;;;6.25;3.22;;;;;;;32.33;27.50;94899.06;5081258;28;20109;-69
2021/09/17 09:50:29;;;;;;;3.70;2.53;;;;;;;31.60;27.17;94886.66;5076608;28;20052;-69
2021/09/17 09:53:02;;;;;;;4.10;2.72;;;;;;;31.44;28.23;94867.19;5083062;28;20043;-69
2021/09/17 09:55:30;;;;;;;5.97;2.83;;;;;;;31.77;28.06;94858.41;5069210;28;20493;-67
2021/09/17 09:57:57;;;;;;;5.07;3.05;;;;;;;32.11;27.54;94852.28;5077369;28;20429;-70
2021/09/17 10:00:27;;;;;;;6.55;3.15;;;;;;;32.31;28.76;94836.69;5065578;28;20412;-69
2021/09/17 10:02:55;;;;;;;7.78;3.90;;;;;;;32.43;30.21;94838.31;5068446;28;20047;-68
2021/09/17 10:05:26;;;;;;;6.63;3.55;;;;;;;32.71;29.41;94837.84;5064842;28;20064;-68
2021/09/17 10:07:53;;;;;;;6.78;3.10;;;;;;;33.02;27.43;94851.94;5075706;28;20070;-68
2021/09/17 10:10:20;;;;;;;3.33;2.40;;;;;;;32.93;26.36;94839.53;5083019;28;20053;-68
2021/09/17 10:12:47;;;;;;;6.93;2.60;;;;;;;33.37;25.75;94845.22;5074333;28;20484;-68
2021/09/17 10:15:17;;;;;;;8.30;3.58;;;;;;;33.65;25.34;94833.78;5076029;28;20059;-68
2021/09/17 10:17:53;;;;;;;5.35;2.60;;;;;;;34.05;24.87;94830.13;5072801;28;20131;-69
2021/09/17 10:20:20;;;;;;;7.63;4.30;;;;;;;34.23;25.32;94835.59;5077599;28;20060;-69
2021/09/17 10:22:48;;;;;;;6.60;2.47;;;;;;;34.60;24.72;94842.56;5063098;28;20108;-69
2021/09/17 10:25:22;;;;;;;7.57;3.03;;;;;;;34.65;23.93;94833.31;5072386;28;20109;-68
2021/09/17 10:28:07;;;;;;;5.93;2.60;;;;;;;34.24;24.79;94845.22;5070120;28;20052;-69
2021/09/17 10:30:37;;;;;;;4.07;2.03;;;;;;;34.28;24.79;94842.53;5078608;28;20064;-68
2021/09/17 10:33:24;;;;;;;9.27;3.58;;;;;;;34.13;24.30;94830.13;5080169;28;20044;-68
2021/09/17 10:35:51;;;;;;;14.05;3.88;;;;;;;34.42;23.09;94829.03;5073553;28;20063;-68
2021/09/17 10:38:29;;;;;;;5.18;2.78;;;;;;;34.42;23.20;94826.31;5073497;28;20035;-69
2021/09/17 10:40:59;;;;;;;3.70;2.35;;;;;;;34.62;22.95;94823.25;5077690;28;20052;-68
2021/09/17 10:43:38;;;;;;;10.40;3.05;;;;;;;34.24;23.34;94820.13;5076282;28;20032;-68
2021/09/17 10:46:19;;;;;;;11.68;3.53;;;;;;;33.72;24.99;94802.22;5072878;28;20057;-68
2021/09/17 10:48:47;;;;;;;8.73;2.92;;;;;;;33.61;24.17;94795.97;5070577;28;20036;-68
2021/09/17 10:51:41;;;;;;;13.35;2.63;;;;;;;33.26;25.19;94813.56;5075917;28;20057;-68
2021/09/17 10:54:12;;;;;;;12.02;3.60;;;;;;;33.22;25.34;94807.38;5104923;27;20066;-68
2021/09/17 10:56:48;;;;;;;5.80;2.38;;;;;;;33.58;24.64;94798.66;5084256;28;20044;-68
2021/09/17 10:59:25;;;;;;;6.68;2.53;;;;;;;34.06;24.43;94793.06;5078038;28;20032;-68
2021/09/17 11:02:00;;;;;;;9.23;2.80;;;;;;;34.30;24.15;94774.56;5069317;28;20055;-68
2021/09/17 11:04:31;;;;;;;8.50;2.97;;;;;;;34.75;23.28;94770.34;5074204;28;20182;-67
2021/09/17 11:07:17;;;;;;;4.00;3.40;;;;;;;34.99;23.00;94770.69;5078546;28;20040;-69
2021/09/17 11:09:51;;;;;;;4.03;2.45;;;;;;;35.23;22.83;94778.00;5074846;28;20058;-69
2021/09/17 11:12:22;;;;;;;8.55;3.80;;;;;;;35.83;22.18;94771.97;5080518;28;20044;-68
2021/09/17 11:15:04;;;;;;;6.72;2.85;;;;;;;35.98;22.53;94768.78;5082510;28;20036;-69
2021/09/17 11:17:45;;;;;;;5.85;2.83;;;;;;;35.99;21.62;94764.91;5079342;28;20043;-68
2021/09/17 11:20:19;;;;;;;6.13;2.78;;;;;;;34.94;23.59;94760.28;5069641;28;20053;-69
2021/09/17 11:22:47;;;;;;;5.85;2.40;;;;;;;34.17;22.77;94760.63;5080790;28;20139;-68
2021/09/17 11:25:19;;;;;;;7.65;3.35;;;;;;;33.97;24.20;94752.91;5080587;28;20044;-68
2021/09/17 11:27:46;;;;;;;10.77;3.25;;;;;;;33.85;25.01;94758.66;5072208;28;20098;-67
2021/09/17 11:30:13;;;;;;;5.22;3.20;;;;;;;33.00;24.93;94751.72;5077135;28;20033;-67
2021/09/17 11:32:40;;;;;;;4.60;2.40;;;;;;;32.48;25.83;94754.44;5086784;28;20416;-67
2021/09/17 11:35:08;;;;;;;8.02;2.40;;;;;;;32.09;27.12;94749.50;5085305;28;20051;-68
2021/09/17 11:37:35;;;;;;;6.43;2.60;;;;;;;31.69;26.98;94741.00;5076782;28;20036;-67